createdAt,value
2022-09-18T00:01:17.924Z,14.30
2022-09-18T00:03:46.595Z,14.30
2022-09-18T00:06:15.355Z,14.30
2022-09-18T00:08:43.936Z,14.30
2022-09-18T00:11:12.747Z,14.30
2022-09-18T00:13:40.435Z,14.30
2022-09-18T00:16:09.075Z,14.30
2022-09-18T00:18:36.644Z,14.30
2022-09-18T00:21:04.915Z,14.40
2022-09-18T00:23:32.234Z,14.40
2022-09-18T00:25:59.444Z,14.30
2022-09-18T00:28:26.795Z,14.20
2022-09-18T00:30:54.137Z,14.20
2022-09-18T00:33:21.474Z,14.20
2022-09-18T00:35:49.112Z,14.10
2022-09-18T00:38:16.394Z,14.10
2022-09-18T00:40:43.693Z,14.10
2022-09-18T00:43:21.706Z,14.00
2022-09-18T00:45:57.760Z,14.00
2022-09-18T00:48:28.164Z,13.90
2022-09-18T00:50:55.455Z,13.80
2022-09-18T00:53:23.200Z,13.80
2022-09-18T00:55:50.434Z,13.80
2022-09-18T00:58:17.725Z,13.70
2022-09-18T01:00:45.017Z,13.70
2022-09-18T01:03:12.846Z,13.70
2022-09-18T01:05:58.459Z,13.80
2022-09-18T01:08:44.446Z,13.70
2022-09-18T01:11:11.687Z,13.70
2022-09-18T01:13:38.854Z,13.70
2022-09-18T01:16:13.998Z,13.70
2022-09-18T01:18:41.464Z,13.60
2022-09-18T01:21:20.370Z,13.60
2022-09-18T01:24:02.759Z,13.60
2022-09-18T01:26:39.710Z,13.60
2022-09-18T01:29:24.125Z,13.50
2022-09-18T01:32:16.126Z,13.50
2022-09-18T01:34:46.625Z,13.50
2022-09-18T01:37:13.904Z,13.50
2022-09-18T01:39:46.747Z,13.50
2022-09-18T01:42:15.225Z,13.40
2022-09-18T01:44:44.476Z,13.40
2022-09-18T01:47:14.145Z,13.40
2022-09-18T01:49:44.284Z,13.40
2022-09-18T01:52:21.135Z,13.40
2022-09-18T01:54:49.884Z,13.30
2022-09-18T01:57:17.125Z,13.30
2022-09-18T01:59:49.615Z,13.30
2022-09-18T02:02:33.162Z,13.30
2022-09-18T02:05:02.815Z,13.30
2022-09-18T02:07:30.065Z,13.30
2022-09-18T02:09:58.657Z,13.20
2022-09-18T02:12:29.356Z,13.20
2022-09-18T02:15:03.804Z,13.10
2022-09-18T02:17:40.555Z,13.00
2022-09-18T02:20:16.574Z,13.00
2022-09-18T02:22:45.994Z,13.00
2022-09-18T02:25:15.914Z,12.90
2022-09-18T02:27:44.646Z,12.90
2022-09-18T02:30:12.256Z,12.90
2022-09-18T02:32:40.235Z,12.80
2022-09-18T02:35:09.005Z,12.70
2022-09-18T02:37:55.406Z,12.70
2022-09-18T02:40:34.907Z,12.70
2022-09-18T02:43:09.645Z,12.70
2022-09-18T02:45:43.195Z,12.70
2022-09-18T02:48:28.865Z,12.60
2022-09-18T02:50:56.274Z,12.60
2022-09-18T02:53:46.555Z,12.50
2022-09-18T02:56:23.355Z,12.40
2022-09-18T02:58:55.945Z,12.30
2022-09-18T03:01:25.731Z,12.30
2022-09-18T03:03:53.173Z,12.30
2022-09-18T03:06:29.634Z,12.30
2022-09-18T03:08:56.896Z,12.30
2022-09-18T03:11:24.065Z,12.30
2022-09-18T03:13:51.444Z,12.40
2022-09-18T03:16:18.665Z,12.40
2022-09-18T03:18:45.925Z,12.30
2022-09-18T03:21:13.215Z,12.30
2022-09-18T03:23:45.340Z,12.20
2022-09-18T03:26:20.715Z,12.10
2022-09-18T03:28:48.525Z,12.10
2022-09-18T03:31:17.234Z,12.10
2022-09-18T03:33:45.585Z,12.00
2022-09-18T03:36:13.635Z,12.00
2022-09-18T03:38:41.996Z,12.10
2022-09-18T03:41:09.725Z,12.10
2022-09-18T03:43:40.704Z,12.00
2022-09-18T03:46:10.707Z,12.00
2022-09-18T03:48:38.245Z,11.90
2022-09-18T03:51:05.905Z,12.00
2022-09-18T03:53:33.665Z,12.00
2022-09-18T03:56:26.676Z,12.10
2022-09-18T03:59:08.236Z,12.10
2022-09-18T04:01:55.598Z,12.10
2022-09-18T04:04:29.114Z,12.10
2022-09-18T04:06:59.114Z,12.00
2022-09-18T04:09:46.111Z,12.00
2022-09-18T04:12:13.201Z,12.00
2022-09-18T04:14:43.260Z,12.00
2022-09-18T04:17:11.241Z,11.90
2022-09-18T04:19:38.534Z,11.90
2022-09-18T04:22:09.240Z,11.80
2022-09-18T04:24:39.763Z,11.80
2022-09-18T04:27:08.030Z,11.80
2022-09-18T04:29:35.164Z,11.80
2022-09-18T04:32:02.663Z,11.80
2022-09-18T04:34:29.675Z,11.70
2022-09-18T04:36:56.691Z,11.70
2022-09-18T04:39:28.631Z,11.60
2022-09-18T04:42:00.161Z,11.50
2022-09-18T04:44:27.361Z,11.50
2022-09-18T04:46:54.454Z,11.40
2022-09-18T04:49:21.712Z,11.40
2022-09-18T04:51:49.141Z,11.40
2022-09-18T04:54:16.311Z,11.30
2022-09-18T04:56:44.681Z,11.30
2022-09-18T04:59:12.312Z,11.40
2022-09-18T05:01:43.805Z,11.30
2022-09-18T05:04:13.191Z,11.30
2022-09-18T05:06:58.291Z,11.20
2022-09-18T05:09:25.323Z,11.20
2022-09-18T05:11:54.703Z,11.20
2022-09-18T05:14:23.923Z,11.20
2022-09-18T05:16:56.483Z,11.20
2022-09-18T05:19:34.460Z,11.20
2022-09-18T05:22:06.611Z,11.20
2022-09-18T05:24:38.201Z,11.20
2022-09-18T05:27:06.270Z,11.10
2022-09-18T05:29:33.272Z,11.20
2022-09-18T05:32:09.496Z,11.20
2022-09-18T05:34:37.811Z,11.20
2022-09-18T05:37:06.892Z,11.10
2022-09-18T05:39:34.040Z,11.10
2022-09-18T05:42:02.301Z,11.10
2022-09-18T05:44:29.480Z,11.10
2022-09-18T05:46:57.342Z,11.10
2022-09-18T05:49:24.522Z,11.10
2022-09-18T05:51:52.131Z,11.10
2022-09-18T05:54:21.042Z,11.00
2022-09-18T05:56:49.348Z,11.00
2022-09-18T05:59:16.781Z,11.00
2022-09-18T06:01:47.712Z,10.90
2022-09-18T06:04:43.581Z,10.90
2022-09-18T06:07:13.182Z,10.80
2022-09-18T06:09:40.273Z,10.80
2022-09-18T06:12:07.361Z,10.80
2022-09-18T06:14:36.612Z,10.80
2022-09-18T06:17:04.011Z,10.90
2022-09-18T06:19:34.861Z,10.90
2022-09-18T06:22:02.084Z,10.90
2022-09-18T06:24:29.051Z,11.00
2022-09-18T06:27:07.412Z,11.00
2022-09-18T06:29:35.082Z,11.10
2022-09-18T06:32:10.312Z,11.10
2022-09-18T06:34:39.272Z,11.10
2022-09-18T06:37:11.410Z,11.20
2022-09-18T06:39:58.665Z,11.20
2022-09-18T06:42:40.693Z,11.30
2022-09-18T06:45:33.601Z,11.40
2022-09-18T06:48:03.610Z,11.40
2022-09-18T06:50:36.353Z,11.50
2022-09-18T06:53:12.258Z,11.50
2022-09-18T06:55:49.156Z,11.60
2022-09-18T06:58:17.461Z,11.70
2022-09-18T07:00:45.060Z,11.70
2022-09-18T07:03:19.751Z,11.80
2022-09-18T07:06:05.301Z,11.90
2022-09-18T07:08:42.113Z,12.00
2022-09-18T07:11:17.942Z,12.00
2022-09-18T07:13:46.641Z,12.10
2022-09-18T07:16:14.043Z,12.20
2022-09-18T07:18:42.351Z,12.20
2022-09-18T07:21:13.332Z,12.40
2022-09-18T07:23:43.271Z,12.50
2022-09-18T07:26:10.431Z,12.60
2022-09-18T07:28:37.661Z,12.70
2022-09-18T07:31:14.928Z,12.80
2022-09-18T07:33:43.611Z,12.90
2022-09-18T07:36:16.691Z,13.00
2022-09-18T07:38:43.860Z,13.20
2022-09-18T07:41:12.056Z,13.40
2022-09-18T07:43:43.640Z,13.60
2022-09-18T07:46:10.976Z,13.70
2022-09-18T07:48:39.521Z,14.00
2022-09-18T07:51:14.861Z,14.20
2022-09-18T07:53:45.311Z,14.50
2022-09-18T07:56:12.575Z,14.70
2022-09-18T07:58:40.791Z,15.00
2022-09-18T08:01:15.247Z,15.30
2022-09-18T08:03:50.131Z,15.60
2022-09-18T08:06:20.581Z,15.90
2022-09-18T08:09:06.624Z,16.20
2022-09-18T08:11:52.422Z,16.50
2022-09-18T08:14:37.923Z,16.80
2022-09-18T08:17:26.193Z,17.00
2022-09-18T08:20:09.690Z,17.30
2022-09-18T08:22:51.061Z,17.60
2022-09-18T08:25:22.230Z,17.90
2022-09-18T08:27:50.490Z,18.10
2022-09-18T08:30:27.582Z,18.30
2022-09-18T08:33:00.440Z,18.50
2022-09-18T08:35:28.590Z,18.60
2022-09-18T08:37:59.971Z,18.90
2022-09-18T08:41:05.141Z,19.00
2022-09-18T08:43:44.540Z,19.30
2022-09-18T08:46:16.870Z,19.50
2022-09-18T08:48:50.758Z,19.80
2022-09-18T08:51:30.865Z,20.00
2022-09-18T08:54:04.240Z,20.20
2022-09-18T08:56:57.561Z,20.30
2022-09-18T08:59:35.081Z,20.50
2022-09-18T09:02:24.302Z,20.60
2022-09-18T09:04:56.180Z,20.80
2022-09-18T09:07:39.781Z,21.00
2022-09-18T09:10:16.032Z,21.30
2022-09-18T09:12:45.121Z,21.50
2022-09-18T09:15:19.450Z,21.70
2022-09-18T09:17:53.664Z,22.00
2022-09-18T09:20:24.077Z,22.40
2022-09-18T09:23:14.831Z,22.50
2022-09-18T09:26:01.142Z,22.60
2022-09-18T09:28:59.913Z,22.60
2022-09-18T09:31:51.535Z,22.80
2022-09-18T09:34:51.441Z,22.90
2022-09-18T09:37:38.881Z,22.90
2022-09-18T09:40:32.617Z,23.10
2022-09-18T09:43:03.863Z,23.30
2022-09-18T09:45:44.292Z,23.40
2022-09-18T09:48:30.491Z,23.50
2022-09-18T09:51:16.392Z,23.70
2022-09-18T09:53:44.353Z,23.50
2022-09-18T09:56:23.242Z,23.50
2022-09-18T09:58:59.804Z,23.60
2022-09-18T10:01:30.271Z,23.60
2022-09-18T10:04:06.951Z,23.70
2022-09-18T10:06:39.390Z,23.70
2022-09-18T10:09:15.494Z,23.60
2022-09-18T10:11:46.941Z,23.60
2022-09-18T10:14:17.510Z,23.80
2022-09-18T10:16:48.871Z,24.00
2022-09-18T10:19:21.160Z,24.10
2022-09-18T10:21:51.321Z,24.20
2022-09-18T10:24:40.052Z,24.40
2022-09-18T10:27:11.590Z,24.50
2022-09-18T10:29:40.149Z,24.50
2022-09-18T10:32:12.880Z,24.60
2022-09-18T10:34:48.805Z,24.60
2022-09-18T10:37:38.861Z,24.70
2022-09-18T10:40:43.713Z,24.90
2022-09-18T10:43:17.883Z,25.00
2022-09-18T10:45:52.841Z,25.00
2022-09-18T10:48:43.631Z,25.00
2022-09-18T10:51:16.092Z,25.10
2022-09-18T10:53:46.071Z,25.10
2022-09-18T10:56:24.061Z,25.30
2022-09-18T10:58:54.540Z,25.30
2022-09-18T11:01:24.633Z,25.30
2022-09-18T11:04:06.742Z,25.30
2022-09-18T11:06:37.183Z,25.30
2022-09-18T11:09:17.992Z,25.30
2022-09-18T11:11:46.491Z,25.40
2022-09-18T11:14:22.552Z,25.50
2022-09-18T11:16:56.931Z,25.50
2022-09-18T11:19:48.301Z,25.50
2022-09-18T11:22:33.521Z,25.50
2022-09-18T11:25:20.440Z,25.50
2022-09-18T11:28:00.108Z,25.60
2022-09-18T11:30:34.663Z,25.60
2022-09-18T11:33:15.110Z,25.60
2022-09-18T11:35:46.381Z,25.60
2022-09-18T11:38:16.801Z,25.60
2022-09-18T11:40:46.179Z,25.70
2022-09-18T11:43:25.856Z,25.70
2022-09-18T11:46:01.601Z,25.80
2022-09-18T11:48:43.371Z,25.90
2022-09-18T11:51:15.161Z,25.90
2022-09-18T11:54:04.599Z,25.80
2022-09-18T11:56:44.931Z,25.80
2022-09-18T11:59:32.451Z,25.80
2022-09-18T12:02:18.920Z,26.00
2022-09-18T12:04:53.203Z,26.00
2022-09-18T12:10:30.672Z,26.10
2022-09-18T12:13:16.480Z,26.10
2022-09-18T12:15:57.157Z,26.10
2022-09-18T12:18:26.196Z,26.10
2022-09-18T12:21:06.634Z,26.10
2022-09-18T12:23:34.302Z,26.10
2022-09-18T12:26:29.850Z,26.10
2022-09-18T12:29:03.377Z,26.10
2022-09-18T12:31:42.837Z,26.20
2022-09-18T12:34:28.524Z,26.20
2022-09-18T12:36:58.521Z,26.10
2022-09-18T12:40:05.042Z,26.00
2022-09-18T12:42:41.108Z,25.80
2022-09-18T12:45:26.678Z,25.90
2022-09-18T12:47:56.394Z,25.90
2022-09-18T12:50:25.862Z,25.80
2022-09-18T12:53:08.685Z,25.70
2022-09-18T12:55:50.877Z,25.80
2022-09-18T12:58:36.419Z,25.80
2022-09-18T13:01:07.893Z,25.70
2022-09-18T13:03:36.663Z,25.70
2022-09-18T13:06:08.939Z,25.70
2022-09-18T13:08:40.018Z,25.60
2022-09-18T13:11:12.445Z,25.60
2022-09-18T13:13:52.213Z,25.60
2022-09-18T13:16:22.927Z,25.60
2022-09-18T13:18:53.492Z,25.70
2022-09-18T13:21:26.019Z,25.70
2022-09-18T13:23:54.217Z,25.60
2022-09-18T13:26:22.936Z,25.60
2022-09-18T13:28:50.934Z,25.50
2022-09-18T13:31:17.949Z,25.50
2022-09-18T13:33:54.060Z,25.50
2022-09-18T13:36:22.689Z,25.50
2022-09-18T13:38:50.950Z,25.50
2022-09-18T13:41:18.446Z,25.50
2022-09-18T13:43:56.035Z,25.50
2022-09-18T13:46:31.601Z,25.50
2022-09-18T13:48:59.847Z,25.50
2022-09-18T13:51:31.475Z,25.50
2022-09-18T13:54:10.996Z,25.60
2022-09-18T13:56:57.016Z,25.60
2022-09-18T13:59:43.356Z,25.60
2022-09-18T14:02:39.813Z,25.60
2022-09-18T14:05:45.246Z,25.50
2022-09-18T14:08:24.422Z,25.50
2022-09-18T14:11:19.541Z,25.40
2022-09-18T14:13:54.701Z,25.30
2022-09-18T14:16:24.141Z,25.40
2022-09-18T14:19:02.079Z,25.40
2022-09-18T14:21:42.099Z,25.40
2022-09-18T14:24:23.307Z,25.40
2022-09-18T14:26:58.080Z,25.40
2022-09-18T14:29:27.237Z,25.40
2022-09-18T14:31:55.786Z,25.40
2022-09-18T14:34:22.848Z,25.40
2022-09-18T14:36:51.586Z,25.30
2022-09-18T14:39:28.108Z,25.20
2022-09-18T14:41:56.279Z,25.20
2022-09-18T14:44:23.721Z,25.10
2022-09-18T14:46:55.822Z,25.10
2022-09-18T14:49:32.854Z,25.10
2022-09-18T14:52:04.370Z,25.10
2022-09-18T14:54:31.836Z,25.10
2022-09-18T14:57:01.055Z,25.00
2022-09-18T14:59:29.348Z,25.00
2022-09-18T15:02:18.074Z,24.90
2022-09-18T15:04:45.525Z,24.90
2022-09-18T15:07:18.047Z,24.90
2022-09-18T15:09:46.607Z,24.80
2022-09-18T15:12:15.448Z,24.80
2022-09-18T15:14:46.981Z,24.70
2022-09-18T15:17:24.820Z,24.70
2022-09-18T15:19:59.390Z,24.70
2022-09-18T15:22:26.895Z,24.70
2022-09-18T15:25:10.416Z,24.70
2022-09-18T15:27:37.611Z,24.60
2022-09-18T15:30:06.066Z,24.60
2022-09-18T15:32:38.913Z,24.60
2022-09-18T15:35:08.858Z,24.60
2022-09-18T15:37:38.437Z,24.50
2022-09-18T15:40:08.111Z,24.50
2022-09-18T15:42:40.418Z,24.50
2022-09-18T15:45:07.490Z,24.40
2022-09-18T15:47:36.847Z,24.30
2022-09-18T15:50:13.071Z,24.30
2022-09-18T15:52:47.414Z,24.30
2022-09-18T15:55:19.629Z,24.30
2022-09-18T15:57:50.719Z,24.20
2022-09-18T16:00:25.028Z,24.20
2022-09-18T16:02:53.559Z,24.10
2022-09-18T16:05:21.398Z,24.10
2022-09-18T16:07:58.399Z,24.00
2022-09-18T16:10:34.568Z,24.00
2022-09-18T16:13:05.566Z,24.00
2022-09-18T16:15:34.307Z,23.90
2022-09-18T16:18:16.857Z,23.90
2022-09-18T16:20:50.980Z,23.80
2022-09-18T16:23:34.546Z,23.70
2022-09-18T16:26:01.655Z,23.70
2022-09-18T16:28:30.397Z,23.70
2022-09-18T16:30:57.594Z,23.60
2022-09-18T16:33:31.671Z,23.60
2022-09-18T16:36:07.971Z,23.50
2022-09-18T16:38:35.614Z,23.40
2022-09-18T16:41:02.645Z,23.30
2022-09-18T16:43:30.010Z,23.30
2022-09-18T16:45:57.066Z,23.30
2022-09-18T16:48:24.515Z,23.20
2022-09-18T16:50:51.536Z,23.20
2022-09-18T16:53:18.715Z,23.10
2022-09-18T16:55:47.985Z,23.00
2022-09-18T16:58:17.818Z,23.00
2022-09-18T17:00:44.894Z,23.00
2022-09-18T17:03:12.067Z,22.90
2022-09-18T17:05:39.247Z,22.80
2022-09-18T17:08:06.535Z,22.70
2022-09-18T17:10:34.244Z,22.60
2022-09-18T17:13:01.855Z,22.60
2022-09-18T17:15:29.435Z,22.50
2022-09-18T17:17:56.554Z,22.40
2022-09-18T17:20:23.648Z,22.30
2022-09-18T17:22:51.573Z,22.30
2022-09-18T17:25:18.765Z,22.20
2022-09-18T17:27:45.924Z,22.10
2022-09-18T17:30:13.055Z,22.10
2022-09-18T17:32:40.234Z,22.00
2022-09-18T17:35:07.464Z,21.90
2022-09-18T17:37:34.797Z,21.90
2022-09-18T17:40:02.142Z,21.80
2022-09-18T17:42:29.315Z,21.70
2022-09-18T17:44:56.846Z,21.60
2022-09-18T17:47:24.145Z,21.50
2022-09-18T17:49:51.264Z,21.40
2022-09-18T17:52:18.784Z,21.30
2022-09-18T17:54:45.986Z,21.30
2022-09-18T17:57:13.197Z,21.10
2022-09-18T17:59:41.644Z,21.00
2022-09-18T18:02:09.433Z,20.90
2022-09-18T18:04:36.896Z,20.90
2022-09-18T18:07:04.944Z,20.80
2022-09-18T18:09:32.344Z,20.70
2022-09-18T18:11:59.719Z,20.70
2022-09-18T18:14:29.273Z,20.60
2022-09-18T18:16:56.417Z,20.50
2022-09-18T18:19:23.544Z,20.50
2022-09-18T18:21:50.676Z,20.40
2022-09-18T18:24:19.116Z,20.30
2022-09-18T18:26:47.325Z,20.20
2022-09-18T18:29:15.614Z,20.10
2022-09-18T18:31:43.406Z,20.00
2022-09-18T18:34:11.704Z,20.00
2022-09-18T18:36:39.813Z,19.90
2022-09-18T18:39:10.035Z,19.80
2022-09-18T18:41:37.354Z,19.80
2022-09-18T18:44:06.253Z,19.70
2022-09-18T18:46:36.117Z,19.70
2022-09-18T18:49:11.464Z,19.60
2022-09-18T18:51:47.485Z,19.60
2022-09-18T18:54:23.594Z,19.50
2022-09-18T18:56:51.747Z,19.40
2022-09-18T18:59:19.444Z,19.40
2022-09-18T19:01:47.705Z,19.30
2022-09-18T19:04:16.265Z,19.10
2022-09-18T19:06:44.163Z,19.10
2022-09-18T19:09:14.336Z,19.20
2022-09-18T19:11:48.307Z,19.10
2022-09-18T19:14:17.164Z,19.10
2022-09-18T19:16:44.653Z,19.10
2022-09-18T19:19:12.373Z,19.10
2022-09-18T19:21:39.773Z,19.00
2022-09-18T19:24:08.003Z,19.00
2022-09-18T19:26:35.605Z,19.00
2022-09-18T19:29:07.792Z,18.90
2022-09-18T19:31:36.167Z,18.90
2022-09-18T19:34:03.729Z,18.90
2022-09-18T19:36:31.552Z,18.80
2022-09-18T19:38:59.802Z,18.80
2022-09-18T19:41:46.764Z,18.80
2022-09-18T19:44:29.203Z,18.70
2022-09-18T19:46:58.577Z,18.70
2022-09-18T19:49:29.032Z,18.60
2022-09-18T19:51:56.113Z,18.60
2022-09-18T19:54:23.712Z,18.60
2022-09-18T19:56:50.823Z,18.50
2022-09-18T19:59:17.952Z,18.50
2022-09-18T20:01:45.099Z,18.40
2022-09-18T20:04:12.114Z,18.40
2022-09-18T20:06:40.643Z,18.40
2022-09-18T20:09:07.835Z,18.40
2022-09-18T20:11:35.463Z,18.40
2022-09-18T20:14:02.493Z,18.30
2022-09-18T20:16:29.852Z,18.30
2022-09-18T20:18:56.993Z,18.30
2022-09-18T20:21:24.275Z,18.20
2022-09-18T20:23:55.834Z,18.20
2022-09-18T20:26:22.945Z,18.20
2022-09-18T20:28:50.015Z,18.10
2022-09-18T20:31:17.668Z,18.00
2022-09-18T20:33:44.736Z,18.00
2022-09-18T20:36:12.065Z,17.90
2022-09-18T20:38:40.236Z,17.90
2022-09-18T20:41:09.274Z,17.90
2022-09-18T20:43:38.804Z,17.90
2022-09-18T20:46:07.425Z,17.90
2022-09-18T20:48:39.385Z,17.80
2022-09-18T20:51:09.307Z,17.80
2022-09-18T20:53:38.415Z,17.80
2022-09-18T20:56:09.715Z,17.70
2022-09-18T20:58:39.285Z,17.70
2022-09-18T21:01:13.471Z,17.60
2022-09-18T21:03:42.735Z,17.60
2022-09-18T21:06:21.920Z,17.50
2022-09-18T21:08:50.355Z,17.50
2022-09-18T21:11:18.996Z,17.40
2022-09-18T21:13:49.246Z,17.40
2022-09-18T21:16:20.694Z,17.40
2022-09-18T21:18:48.817Z,17.30
2022-09-18T21:21:16.807Z,17.30
2022-09-18T21:24:02.418Z,17.40
2022-09-18T21:26:40.304Z,17.30
2022-09-18T21:29:13.705Z,17.20
2022-09-18T21:31:44.753Z,17.20
2022-09-18T21:34:26.883Z,17.10
2022-09-18T21:36:56.537Z,17.10
2022-09-18T21:39:23.617Z,17.10
2022-09-18T21:41:53.408Z,17.00
2022-09-18T21:44:27.708Z,16.90
2022-09-18T21:46:55.689Z,16.90
2022-09-18T21:49:22.960Z,16.80
2022-09-18T21:51:50.428Z,16.70
2022-09-18T21:54:20.120Z,16.70
2022-09-18T21:56:51.971Z,16.70
2022-09-18T21:59:19.838Z,16.70
2022-09-18T22:01:49.160Z,16.70
2022-09-18T22:04:17.550Z,16.70
2022-09-18T22:06:45.635Z,16.60
2022-09-18T22:09:15.423Z,16.70
2022-09-18T22:11:42.853Z,16.70
2022-09-18T22:14:12.254Z,16.60
2022-09-18T22:16:39.750Z,16.60
2022-09-18T22:19:10.434Z,16.60
2022-09-18T22:21:38.683Z,16.50
2022-09-18T22:24:10.312Z,16.50
2022-09-18T22:26:42.434Z,16.40
2022-09-18T22:29:13.693Z,16.40
2022-09-18T22:31:40.907Z,16.30
2022-09-18T22:34:08.025Z,16.30
2022-09-18T22:36:35.194Z,16.20
2022-09-18T22:39:02.174Z,16.10
2022-09-18T22:41:29.223Z,16.10
2022-09-18T22:43:56.873Z,16.00
2022-09-18T22:46:25.350Z,15.90
2022-09-18T22:48:52.444Z,15.90
2022-09-18T22:51:20.907Z,15.90
2022-09-18T22:53:49.454Z,15.90
2022-09-18T22:56:17.224Z,15.80
2022-09-18T22:58:44.854Z,15.90
2022-09-18T23:01:14.275Z,15.90
2022-09-18T23:03:41.654Z,15.90
2022-09-18T23:06:09.144Z,15.90
2022-09-18T23:08:36.704Z,15.80
2022-09-18T23:11:05.424Z,15.70
2022-09-18T23:13:32.914Z,15.70
2022-09-18T23:16:04.806Z,15.70
2022-09-18T23:18:31.954Z,15.70
2022-09-18T23:21:00.294Z,15.60
2022-09-18T23:23:28.994Z,15.70
2022-09-18T23:25:56.244Z,15.70
2022-09-18T23:28:23.303Z,15.70
2022-09-18T23:30:50.294Z,15.60
2022-09-18T23:33:17.383Z,15.60
2022-09-18T23:35:44.384Z,15.60
2022-09-18T23:38:11.514Z,15.60
2022-09-18T23:40:39.114Z,15.60
2022-09-18T23:43:06.424Z,15.60
2022-09-18T23:45:34.806Z,15.60
2022-09-18T23:48:01.953Z,15.60
2022-09-18T23:50:30.805Z,15.60
2022-09-18T23:52:58.675Z,15.60
2022-09-18T23:55:27.475Z,15.60
2022-09-18T23:57:54.606Z,15.60
